首页
METAR-TAF:

METAR-TAF

机场 :

西沃萨古尔·拉姆古兰爵士国际机场

毛里求斯, 毛里求斯

纬度: 20-26S, 经度: 057-40E, 海拔: 55米

当前天气观测

该预报发布于17分钟前的14:00 UTC
风速10节,风向东转东南
温度 23°C
湿度 69%
气压 1023 hPa
能见度10公里或以上
多云层高于1400英尺
散云层高于5000英尺
附近有阵雨

METAR: FIMP 201400Z 12010KT 9999 VCSH BKN014 SCT050 23/17 Q1023

时间: 18:17 (14:17 UTC)

预报

该预报发布于3小时和2分钟前的11:15 UTC
预报有效从20日的 12点(UTC)到 21日的 18点(UTC)
风速13节,风向东转东南,有时为25节阵风
能见度10公里或以上
散云层高于1500英尺
短暂存在
从 20日的 18点(UTC)到 21日的 02点(UTC)
能見度: 5000
少量云层高于1000英尺
多云层高于1400英尺
多云层高于5000英尺
小阵雨
几率 30% :
短暂存在
从 20日的 18点(UTC)到 21日的 00点(UTC)
风速15节,风向东转东南,有时为28节阵风
能見度: 8000
小阵雨

TAF: FIMP 201115Z 2012/2118 12013G25KT 9999 SCT015 TEMPO 2018/2102 5000 -SHRA FEW010 BKN014 BKN050 PROB30 TEMPO 2018/2100 12015G28KT 8000 -SHRA

超过4000个机场的气象观测和天气预报(METAR&TAF报告)。

可查询的气象台以黄色和红色小点在地图上表示。

将鼠标移到小点上方,可查看气象台名称。

然后点击查看天气观测和预报。

如需切换地图:点击带黑十字的绿色按钮放大地图;点击带横线的绿色按钮缩小地图;或者点击绿色箭头查看邻近地区的地图。


METAR-TAF: